Time;durP1;ratioP1;P1;durP2;ratioP2;P2;SDS_P1;SDS_P2;PMS_P1;PMS_P2;Temp;Humidity;BMP_temperature;BMP_pressure;BME280_temperature;BME280_humidity;BME280_pressure;Samples;Min_cycle;Max_cycle;Signal;HPM_P1;HPM_P2
2021/12/28 00:00:36;;;;;;;9.75;1.70;;;;;;;3.09;100.00;91700.34;2092146;28;20067;-85
2021/12/28 00:01:37;;;;;;;11.88;2.20;;;;;;;2.94;100.00;91699.84;2097397;28;20417;-85
2021/12/28 00:02:38;;;;;;;13.23;1.77;;;;;;;2.92;100.00;91701.38;2097354;28;20044;-85
2021/12/28 00:03:42;;;;;;;13.02;1.77;;;;;;;2.95;100.00;91706.63;2097675;28;20043;-86
2021/12/28 00:04:43;;;;;;;7.22;1.83;;;;;;;3.00;100.00;91703.50;2105781;28;20020;-84
2021/12/28 00:05:44;;;;;;;9.13;1.58;;;;;;;2.96;100.00;91707.34;2101282;28;20027;-86
2021/12/28 00:06:45;;;;;;;13.25;1.50;;;;;;;2.80;100.00;91710.59;2098188;28;20028;-87
2021/12/28 00:07:50;;;;;;;9.05;1.65;;;;;;;2.73;100.00;91705.47;2090147;28;20119;-85
2021/12/28 00:08:51;;;;;;;16.10;1.75;;;;;;;2.71;100.00;91710.38;2099556;28;20036;-88
2021/12/28 00:09:52;;;;;;;6.60;1.67;;;;;;;2.71;100.00;91713.75;2103843;28;20485;-86
2021/12/28 00:10:56;;;;;;;9.23;1.92;;;;;;;2.79;100.00;91714.41;2098320;28;20343;-87
2021/12/28 00:11:59;;;;;;;10.70;1.70;;;;;;;2.76;100.00;91715.94;2098675;28;20540;-86
2021/12/28 00:13:00;;;;;;;6.70;2.03;;;;;;;2.87;100.00;91713.16;2090330;28;20028;-85
2021/12/28 00:14:02;;;;;;;11.60;1.88;;;;;;;2.77;100.00;91717.44;2090146;28;20032;-86
2021/12/28 00:15:07;;;;;;;12.95;1.90;;;;;;;2.72;100.00;91711.88;2097096;28;20653;-87
2021/12/28 00:18:29;;;;;;;12.75;1.48;;;;;;;2.66;100.00;91702.91;2109250;28;20020;-87
2021/12/28 00:19:30;;;;;;;11.93;2.55;;;;;;;2.83;100.00;91707.19;2098183;28;20500;-85
2021/12/28 00:20:38;;;;;;;8.30;1.65;;;;;;;2.78;100.00;91715.56;2092775;28;20108;-86
2021/12/28 00:21:39;;;;;;;15.27;2.03;;;;;;;2.86;100.00;91703.00;2100002;28;20024;-86
2021/12/28 00:22:40;;;;;;;11.57;1.85;;;;;;;2.77;100.00;91698.97;2098190;28;20028;-85
2021/12/28 00:23:41;;;;;;;14.75;2.20;;;;;;;2.71;100.00;91702.47;2098256;28;20028;-86
2021/12/28 00:24:43;;;;;;;12.00;2.10;;;;;;;2.81;100.00;91696.28;2106500;28;20062;-85
2021/12/28 00:25:49;;;;;;;9.77;1.83;;;;;;;2.85;100.00;91696.97;2094541;28;20676;-86
2021/12/28 00:27:05;;;;;;;11.82;2.20;;;;;;;2.96;100.00;91697.53;2098158;28;20521;-87
2021/12/28 00:28:07;;;;;;;18.02;2.05;;;;;;;2.91;100.00;91695.38;2102469;28;20062;-87
2021/12/28 00:29:08;;;;;;;10.90;1.98;;;;;;;2.89;100.00;91694.25;2105622;28;20058;-87
2021/12/28 00:30:11;;;;;;;22.02;2.58;;;;;;;2.83;100.00;91698.53;2096145;28;20032;-86
2021/12/28 00:31:15;;;;;;;20.95;2.65;;;;;;;2.81;100.00;91695.53;2099012;28;20029;-86
2021/12/28 00:32:16;;;;;;;12.68;1.98;;;;;;;2.87;100.00;91697.31;2106792;28;20043;-86
2021/12/28 00:33:19;;;;;;;20.15;2.50;;;;;;;2.82;100.00;91695.13;2106509;28;20035;-85
2021/12/28 00:34:20;;;;;;;11.82;2.15;;;;;;;2.98;100.00;91686.56;2090533;28;20048;-86
2021/12/28 00:35:32;;;;;;;18.85;2.97;;;;;;;3.02;100.00;91685.38;2098032;28;20017;-86
2021/12/28 00:36:33;;;;;;;11.73;2.25;;;;;;;2.88;100.00;91675.06;2097907;28;20088;-87
2021/12/28 00:37:35;;;;;;;9.63;1.92;;;;;;;2.83;100.00;91683.44;2084621;28;20021;-87
2021/12/28 00:38:36;;;;;;;9.13;1.77;;;;;;;2.78;100.00;91681.25;2093239;28;20021;-86
2021/12/28 00:39:37;;;;;;;17.63;1.92;;;;;;;2.74;100.00;91677.94;2098080;28;20469;-86
2021/12/28 00:40:38;;;;;;;9.90;1.80;;;;;;;2.70;100.00;91680.63;2093134;28;20036;-86
2021/12/28 00:41:39;;;;;;;14.05;2.05;;;;;;;2.68;100.00;91666.34;2089738;28;20412;-87
2021/12/28 00:42:40;;;;;;;9.85;2.40;;;;;;;2.66;100.00;91660.72;2094289;28;20017;-85
2021/12/28 00:43:42;;;;;;;17.67;2.22;;;;;;;2.62;100.00;91662.66;2094051;28;20017;-86
2021/12/28 00:44:43;;;;;;;7.50;2.45;;;;;;;2.61;100.00;91658.53;2089930;28;20495;-84
2021/12/28 00:45:44;;;;;;;17.00;2.42;;;;;;;2.58;100.00;91654.06;2106466;28;20019;-86
2021/12/28 00:46:45;;;;;;;15.50;1.77;;;;;;;2.53;100.00;91650.72;2098183;28;20027;-87
2021/12/28 00:47:46;;;;;;;7.60;2.00;;;;;;;2.56;100.00;91654.47;2106577;28;20384;-86
2021/12/28 00:48:48;;;;;;;7.60;2.00;;;;;;;2.50;100.00;91654.19;2106328;28;20389;-87
2021/12/28 00:49:49;;;;;;;12.52;1.77;;;;;;;2.44;100.00;91650.50;2097161;28;20023;-87
2021/12/28 00:50:52;;;;;;;18.33;1.90;;;;;;;2.39;100.00;91640.41;2106153;28;20030;-87
2021/12/28 00:51:54;;;;;;;7.70;1.77;;;;;;;2.57;100.00;91655.94;2095419;28;20020;-86
2021/12/28 00:52:56;;;;;;;13.20;1.63;;;;;;;2.41;100.00;91653.19;2089985;28;20115;-85
2021/12/28 00:53:57;;;;;;;8.95;1.30;;;;;;;2.47;100.00;91654.22;2089875;28;20362;-86
2021/12/28 00:54:58;;;;;;;7.32;1.70;;;;;;;2.45;100.00;91649.34;2098080;28;20028;-86
2021/12/28 00:55:59;;;;;;;8.30;1.88;;;;;;;2.37;100.00;91642.72;2096042;28;20016;-86
2021/12/28 00:57:01;;;;;;;5.45;2.00;;;;;;;2.34;100.00;91640.13;2089627;28;20036;-85
2021/12/28 00:58:06;;;;;;;8.32;1.60;;;;;;;2.45;100.00;91656.50;2090273;28;20025;-85
2021/12/28 00:59:07;;;;;;;8.77;1.40;;;;;;;2.39;100.00;91653.59;2097915;28;20025;-85
2021/12/28 01:00:13;;;;;;;9.02;1.73;;;;;;;2.39;100.00;91640.41;2097174;28;20029;-86
2021/12/28 01:01:14;;;;;;;5.78;1.50;;;;;;;2.36;100.00;91643.84;2090495;28;20024;-87
2021/12/28 01:02:15;;;;;;;6.15;1.50;;;;;;;2.29;100.00;91646.59;2097785;28;20024;-86
2021/12/28 01:03:16;;;;;;;9.50;1.80;;;;;;;2.40;100.00;91636.63;2097846;28;20024;-85
2021/12/28 01:04:17;;;;;;;11.68;1.67;;;;;;;2.39;100.00;91643.03;2098120;28;20024;-87
2021/12/28 01:05:19;;;;;;;9.35;1.63;;;;;;;2.38;100.00;91632.91;2097991;28;20020;-85
2021/12/28 01:06:20;;;;;;;10.93;2.10;;;;;;;2.54;100.00;91630.38;2081621;28;20433;-86
2021/12/28 01:07:21;;;;;;;12.95;2.38;;;;;;;2.44;100.00;91631.28;2082490;28;20033;-87
2021/12/28 01:08:22;;;;;;;8.52;2.40;;;;;;;2.36;100.00;91628.00;2097778;28;20024;-87
2021/12/28 01:09:29;;;;;;;14.93;2.53;;;;;;;2.53;100.00;91626.25;2089404;28;20056;-85
2021/12/28 01:10:39;;;;;;;13.85;2.40;;;;;;;2.52;100.00;91622.13;2096205;28;20121;-86
2021/12/28 01:11:42;;;;;;;10.73;2.47;;;;;;;2.41;100.00;91621.53;2086381;28;20024;-85
2021/12/28 01:12:43;;;;;;;8.20;2.50;;;;;;;2.31;100.00;91607.38;2093839;28;20044;-85
2021/12/28 01:13:44;;;;;;;7.30;2.35;;;;;;;2.28;100.00;91613.44;2097811;28;20580;-86
2021/12/28 01:14:45;;;;;;;11.55;2.22;;;;;;;2.33;100.00;91614.88;2093885;28;20031;-86
2021/12/28 01:15:47;;;;;;;7.50;2.50;;;;;;;2.36;100.00;91614.09;2089412;28;20056;-86
2021/12/28 01:16:48;;;;;;;9.15;2.67;;;;;;;2.37;100.00;91620.84;2089694;28;20036;-88
2021/12/28 01:17:51;;;;;;;9.20;2.33;;;;;;;2.41;100.00;91616.25;2089672;28;20040;-85
2021/12/28 01:19:28;;;;;;;8.43;2.72;;;;;;;2.33;100.00;91618.28;2098168;28;20712;-86
2021/12/28 01:20:34;;;;;;;13.18;3.05;;;;;;;2.35;100.00;91617.88;2097778;28;20401;-85
2021/12/28 01:21:35;;;;;;;11.13;2.40;;;;;;;2.32;100.00;91624.69;2101532;28;20142;-85
2021/12/28 01:22:39;;;;;;;10.15;2.83;;;;;;;2.48;100.00;91621.44;2097544;28;20027;-85
2021/12/28 01:23:43;;;;;;;15.32;2.95;;;;;;;2.37;100.00;91618.22;2098021;28;20417;-87
2021/12/28 01:24:46;;;;;;;7.13;2.42;;;;;;;2.29;100.00;91616.84;2098254;28;20024;-86
2021/12/28 01:25:47;;;;;;;15.15;2.78;;;;;;;2.21;100.00;91614.31;2090146;28;20028;-86
2021/12/28 01:26:48;;;;;;;11.50;2.97;;;;;;;2.29;100.00;91619.47;2089543;28;20021;-85
2021/12/28 01:27:49;;;;;;;8.10;2.90;;;;;;;2.34;100.00;91616.38;2097780;28;20058;-86
2021/12/28 01:28:50;;;;;;;7.80;3.17;;;;;;;2.43;100.00;91612.09;2089535;28;20024;-86
2021/12/28 01:29:51;;;;;;;13.20;3.30;;;;;;;2.32;100.00;91608.88;2089420;28;20040;-86
2021/12/28 01:30:53;;;;;;;8.93;3.10;;;;;;;2.38;100.00;91609.91;2097601;28;20051;-88
2021/12/28 01:31:54;;;;;;;10.25;3.10;;;;;;;2.27;100.00;91602.16;2089549;28;20025;-85
2021/12/28 01:32:59;;;;;;;10.02;3.38;;;;;;;2.26;100.00;91608.59;2086626;28;20017;-86
2021/12/28 01:33:59;;;;;;;8.85;3.20;;;;;;;2.36;100.00;91606.91;2096808;28;20032;-87
2021/12/28 01:35:01;;;;;;;7.53;3.42;;;;;;;2.37;100.00;91603.16;2106056;28;20019;-86
2021/12/28 01:36:03;;;;;;;7.22;3.90;;;;;;;2.41;100.00;91598.53;2106032;28;20427;-85
2021/12/28 01:37:04;;;;;;;5.63;3.47;;;;;;;2.42;100.00;91604.59;2105915;28;20028;-86
2021/12/28 01:38:05;;;;;;;14.93;3.42;;;;;;;2.45;100.00;91595.84;2089389;28;20037;-86
2021/12/28 01:39:08;;;;;;;9.48;3.58;;;;;;;2.40;100.00;91610.25;2089605;28;20097;-87
2021/12/28 01:40:12;;;;;;;8.20;3.78;;;;;;;2.36;100.00;91601.66;2089670;28;20036;-86
2021/12/28 01:41:13;;;;;;;8.43;3.35;;;;;;;2.41;100.00;91601.19;2098187;28;20085;-86
2021/12/28 01:42:14;;;;;;;12.57;4.13;;;;;;;2.47;100.00;91602.22;2097707;28;20028;-85
2021/12/28 01:43:21;;;;;;;12.90;4.45;;;;;;;2.44;100.00;91600.38;2097562;28;20073;-85
2021/12/28 01:44:22;;;;;;;7.53;4.15;;;;;;;2.52;100.00;91603.66;2090899;28;20436;-85
2021/12/28 01:45:51;;;;;;;14.52;4.25;;;;;;;2.46;100.00;91597.38;2089459;28;20489;-86
2021/12/28 01:46:52;;;;;;;8.88;3.95;;;;;;;2.52;100.00;91601.03;2094322;28;20032;-86
2021/12/28 01:47:53;;;;;;;12.65;3.78;;;;;;;2.44;100.00;91603.03;2094819;28;20381;-87
2021/12/28 01:48:54;;;;;;;7.07;4.07;;;;;;;2.42;100.00;91605.34;2097469;28;20528;-86
2021/12/28 01:49:55;;;;;;;11.68;4.47;;;;;;;2.37;100.00;91597.88;2106051;28;20019;-87
2021/12/28 01:51:02;;;;;;;8.07;4.30;;;;;;;2.35;100.00;91592.25;2089336;28;20071;-84
2021/12/28 01:52:03;;;;;;;9.40;4.32;;;;;;;2.38;100.00;91594.09;2090983;28;20019;-85
2021/12/28 01:53:06;;;;;;;9.50;4.80;;;;;;;2.42;100.00;91591.41;2089486;28;20025;-86
2021/12/28 01:54:07;;;;;;;13.00;4.60;;;;;;;2.41;100.00;91587.25;2098063;28;20453;-87
2021/12/28 01:55:08;;;;;;;10.00;5.22;;;;;;;2.34;100.00;91587.38;2097575;28;20470;-86
2021/12/28 01:56:14;;;;;;;13.27;5.18;;;;;;;2.38;100.00;91588.81;2089533;28;20025;-88
2021/12/28 01:57:19;;;;;;;13.77;5.05;;;;;;;2.38;100.00;91586.19;2098602;28;20048;-88
2021/12/28 01:58:20;;;;;;;11.40;4.70;;;;;;;2.45;100.00;91586.06;2106377;28;20024;-86
2021/12/28 01:59:21;;;;;;;14.10;5.53;;;;;;;2.40;100.00;91589.16;2106127;28;20020;-88
2021/12/28 02:00:24;;;;;;;18.50;4.75;;;;;;;2.35;100.00;91584.34;2097456;28;20028;-88
2021/12/28 02:01:26;;;;;;;8.48;4.75;;;;;;;2.29;100.00;91582.56;2089600;28;20117;-87
2021/12/28 02:02:27;;;;;;;10.70;5.22;;;;;;;2.37;100.00;91587.34;2089463;28;20125;-85
2021/12/28 02:03:30;;;;;;;19.42;5.22;;;;;;;2.31;100.00;91581.00;2091274;28;20087;-88
2021/12/28 02:04:31;;;;;;;10.77;4.60;;;;;;;2.34;100.00;91579.47;2097757;28;20119;-87
2021/12/28 02:05:32;;;;;;;7.95;4.90;;;;;;;2.31;100.00;91582.91;2089176;28;20021;-87
2021/12/28 02:06:33;;;;;;;10.27;5.20;;;;;;;2.36;100.00;91583.19;2091973;28;20124;-85
2021/12/28 02:07:34;;;;;;;13.18;4.97;;;;;;;2.36;100.00;91587.72;2102879;28;20052;-88
2021/12/28 02:09:51;;;;;;;;;;;;;;;2.20;100.00;91580.44;2148814;27;20565;-86
2021/12/28 02:10:54;;;;;;;12.52;4.22;;;;;;;2.26;100.00;91576.22;2133320;27;19915;-86
2021/12/28 02:11:56;;;;;;;7.65;4.60;;;;;;;2.33;100.00;91570.84;2119334;27;20065;-85
2021/12/28 02:12:57;;;;;;;11.15;4.57;;;;;;;2.31;100.00;91573.09;2113407;28;20020;-86
2021/12/28 02:14:00;;;;;;;8.13;4.32;;;;;;;2.37;100.00;91563.63;2120257;28;20023;-86
2021/12/28 02:15:07;;;;;;;8.23;3.38;;;;;;;2.37;100.00;91560.97;2120060;28;20035;-86
2021/12/28 02:16:08;;;;;;;6.30;2.88;;;;;;;2.47;100.00;91554.03;2117451;27;20028;-85
2021/12/28 02:17:08;;;;;;;5.43;2.30;;;;;;;2.46;100.00;91555.91;2119847;28;20027;-85
2021/12/28 02:18:12;;;;;;;6.00;2.83;;;;;;;2.48;100.00;91550.25;2115793;28;20028;-87
2021/12/28 02:19:14;;;;;;;5.13;2.67;;;;;;;2.54;100.00;91540.69;2120476;27;20039;-86
2021/12/28 02:20:19;;;;;;;4.47;1.88;;;;;;;2.56;100.00;91545.59;2104624;27;20103;-86
2021/12/28 02:21:20;;;;;;;7.80;1.90;;;;;;;2.56;100.00;91545.59;2121766;27;20024;-85
2021/12/28 02:22:21;;;;;;;4.97;2.20;;;;;;;2.62;100.00;91538.69;2121466;27;20525;-87
2021/12/28 02:23:23;;;;;;;5.18;1.95;;;;;;;2.78;100.00;91549.34;2118154;28;20027;-87
2021/12/28 02:24:24;;;;;;;10.13;1.65;;;;;;;2.76;100.00;91546.34;2113132;27;20020;-84
2021/12/28 02:25:25;;;;;;;6.20;1.85;;;;;;;2.85;100.00;91543.19;2111241;28;20111;-86
2021/12/28 02:26:27;;;;;;;7.93;1.33;;;;;;;2.90;100.00;91548.75;2104610;28;20028;-86
2021/12/28 02:27:29;;;;;;;4.25;1.58;;;;;;;2.87;100.00;91546.16;2110910;27;20032;-87
2021/12/28 02:28:30;;;;;;;4.55;1.70;;;;;;;2.85;100.00;91545.81;2113130;27;20034;-85
2021/12/28 02:29:31;;;;;;;9.93;1.40;;;;;;;2.82;100.00;91544.00;2113132;27;20094;-87
2021/12/28 02:30:32;;;;;;;5.05;1.33;;;;;;;2.80;100.00;91536.47;2108344;28;20111;-85
2021/12/28 02:31:34;;;;;;;9.65;1.92;;;;;;;2.78;100.00;91533.50;2112851;28;20020;-87
2021/12/28 02:32:41;;;;;;;7.05;2.22;;;;;;;2.72;100.00;91540.38;2096209;28;20063;-86
2021/12/28 02:33:43;;;;;;;3.63;1.50;;;;;;;2.72;100.00;91530.59;2106131;27;20024;-87
2021/12/28 02:34:47;;;;;;;4.80;2.30;;;;;;;2.77;100.00;91532.78;2121597;27;20023;-86
2021/12/28 02:35:48;;;;;;;8.85;2.60;;;;;;;2.76;100.00;91530.50;2125538;27;20026;-87
2021/12/28 02:36:48;;;;;;;5.13;2.30;;;;;;;2.72;100.00;91527.19;2126214;27;20485;-85
2021/12/28 02:37:51;;;;;;;8.23;2.40;;;;;;;2.73;100.00;91512.88;2121395;27;20476;-86
2021/12/28 02:38:52;;;;;;;6.32;2.35;;;;;;;2.76;100.00;91520.72;2124516;27;20023;-87
2021/12/28 02:39:53;;;;;;;7.53;2.53;;;;;;;2.69;100.00;91525.38;2110272;28;20081;-85
2021/12/28 02:40:55;;;;;;;5.22;2.20;;;;;;;2.69;100.00;91520.84;2107572;28;20073;-86
2021/12/28 02:41:56;;;;;;;6.07;2.50;;;;;;;2.60;100.00;91522.53;2121678;27;20077;-85
2021/12/28 02:43:00;;;;;;;4.82;2.00;;;;;;;2.62;100.00;91518.34;2115313;28;20020;-86
2021/12/28 02:44:03;;;;;;;3.80;1.90;;;;;;;2.63;100.00;91519.06;2119473;27;20035;-86
2021/12/28 02:45:12;;;;;;;1.95;1.75;;;;;;;2.64;100.00;91513.41;2120490;27;20031;-87
2021/12/28 02:46:13;;;;;;;3.97;2.30;;;;;;;2.62;100.00;91507.78;2105660;28;20032;-86
2021/12/28 02:47:17;;;;;;;2.28;1.83;;;;;;;2.59;100.00;91523.66;2113106;27;20125;-85
2021/12/28 02:48:19;;;;;;;4.95;2.00;;;;;;;2.59;100.00;91510.47;2113769;27;20201;-85
2021/12/28 02:49:20;;;;;;;7.13;1.88;;;;;;;2.56;100.00;91508.66;2112858;27;20407;-86
2021/12/28 02:50:39;;;;;;;4.45;1.70;;;;;;;2.55;100.00;91504.53;2113012;27;20023;-85
2021/12/28 02:51:40;;;;;;;2.67;1.75;;;;;;;2.53;100.00;91502.31;2124098;27;20019;-86
2021/12/28 02:52:41;;;;;;;4.00;1.77;;;;;;;2.61;100.00;91500.28;2112933;27;20030;-85
2021/12/28 02:53:50;;;;;;;5.22;2.22;;;;;;;2.57;100.00;91496.97;2121389;27;20039;-86
2021/12/28 02:54:52;;;;;;;5.85;1.90;;;;;;;2.59;100.00;91505.22;2115200;27;20024;-86
2021/12/28 02:55:54;;;;;;;6.00;2.05;;;;;;;2.70;100.00;91500.50;2112965;27;20024;-86
2021/12/28 02:56:54;;;;;;;4.80;1.65;;;;;;;2.73;100.00;91503.06;2107108;28;20049;-85
2021/12/28 02:57:59;;;;;;;5.15;1.58;;;;;;;2.71;100.00;91507.25;2116202;27;20027;-85
2021/12/28 02:59:01;;;;;;;6.22;1.65;;;;;;;2.79;100.00;91503.34;2121829;27;20027;-85
2021/12/28 03:00:06;;;;;;;7.10;1.48;;;;;;;2.73;100.00;91504.97;2135778;27;20073;-85
2021/12/28 03:01:19;;;;;;;7.05;1.67;;;;;;;2.70;100.00;91503.13;2119646;27;20031;-85
2021/12/28 03:02:20;;;;;;;8.35;1.88;;;;;;;2.62;100.00;91507.03;2115097;27;20024;-85
2021/12/28 03:03:28;;;;;;;3.75;1.38;;;;;;;2.60;100.00;91504.81;2111816;28;20075;-85
2021/12/28 03:04:29;;;;;;;6.05;1.48;;;;;;;2.68;100.00;91492.25;2105590;28;20047;-87
2021/12/28 03:05:36;;;;;;;3.08;1.10;;;;;;;2.74;100.00;91495.91;2106566;28;20826;-86
2021/12/28 03:06:41;;;;;;;5.03;1.33;;;;;;;2.68;100.00;91492.25;2102723;28;20031;-86
2021/12/28 03:07:42;;;;;;;6.32;1.55;;;;;;;2.76;100.00;91498.84;2101150;28;20048;-85
2021/12/28 03:08:53;;;;;;;4.93;1.27;;;;;;;2.69;100.00;91494.47;2112714;27;20039;-87
2021/12/28 03:09:54;;;;;;;8.48;1.10;;;;;;;2.67;100.00;91496.75;2116868;28;20528;-85
2021/12/28 03:10:56;;;;;;;9.68;1.25;;;;;;;2.68;100.00;91493.00;2106875;28;20081;-87
2021/12/28 03:11:57;;;;;;;4.82;0.93;;;;;;;2.73;100.00;91489.13;2110469;28;20361;-87
2021/12/28 03:13:02;;;;;;;4.35;1.10;;;;;;;3.10;100.00;91487.28;2106491;28;20085;-85
2021/12/28 03:14:05;;;;;;;4.38;1.02;;;;;;;3.17;100.00;91482.59;2103727;28;20024;-85
2021/12/28 03:15:07;;;;;;;3.25;1.00;;;;;;;3.28;100.00;91501.59;2097642;28;20031;-85
2021/12/28 03:16:13;;;;;;;4.82;1.10;;;;;;;3.16;100.00;91488.28;2103901;28;20157;-84
2021/12/28 03:17:14;;;;;;;3.22;0.88;;;;;;;3.15;100.00;91486.78;2104253;28;20441;-85
2021/12/28 03:18:16;;;;;;;5.90;1.20;;;;;;;3.11;100.00;91491.41;2112317;28;20028;-84
2021/12/28 03:19:17;;;;;;;2.83;1.20;;;;;;;3.14;100.00;91486.06;2096341;28;20028;-84
2021/12/28 03:20:18;;;;;;;4.22;1.15;;;;;;;3.12;100.00;91482.34;2120697;28;20480;-87
2021/12/28 03:21:21;;;;;;;2.45;1.08;;;;;;;3.25;100.00;91483.22;2098897;28;20461;-85
2021/12/28 03:22:22;;;;;;;6.70;1.33;;;;;;;3.27;100.00;91483.53;2106190;28;20024;-84
2021/12/28 03:23:25;;;;;;;3.28;1.13;;;;;;;3.28;100.00;91485.00;2092522;28;20104;-85
2021/12/28 03:24:27;;;;;;;4.65;1.65;;;;;;;3.24;100.00;91479.81;2097244;28;20035;-86
2021/12/28 03:25:28;;;;;;;4.50;2.05;;;;;;;3.21;100.00;91477.25;2094411;28;20032;-86
2021/12/28 03:26:29;;;;;;;5.32;2.00;;;;;;;3.28;100.00;91477.84;2115693;28;20106;-86
2021/12/28 03:27:30;;;;;;;4.25;2.00;;;;;;;3.32;100.00;91469.09;2124037;27;20088;-84
2021/12/28 03:28:33;;;;;;;4.32;2.50;;;;;;;3.23;100.00;91478.31;2102661;28;20029;-84
2021/12/28 03:29:34;;;;;;;3.45;2.25;;;;;;;3.13;100.00;91474.00;2099085;28;20496;-84
2021/12/28 03:30:35;;;;;;;4.90;2.78;;;;;;;3.12;100.00;91477.06;2093602;28;20029;-85
2021/12/28 03:31:36;;;;;;;4.10;3.00;;;;;;;3.07;100.00;91472.25;2090307;28;20017;-86
2021/12/28 03:32:37;;;;;;;7.43;3.70;;;;;;;2.94;100.00;91472.91;2098736;28;20178;-85
2021/12/28 03:33:40;;;;;;;5.40;3.58;;;;;;;2.96;100.00;91472.47;2101647;28;20055;-84
2021/12/28 03:34:44;;;;;;;8.60;4.00;;;;;;;3.02;100.00;91470.84;2095755;28;20462;-85
2021/12/28 03:35:46;;;;;;;7.30;3.75;;;;;;;3.02;100.00;91468.94;2095325;28;20028;-84
2021/12/28 03:36:47;;;;;;;6.25;3.78;;;;;;;2.99;100.00;91472.41;2102648;28;20776;-86
2021/12/28 03:37:49;;;;;;;6.10;4.20;;;;;;;3.12;100.00;91474.44;2111457;28;20038;-87
2021/12/28 03:38:50;;;;;;;7.95;4.47;;;;;;;2.91;100.00;91475.59;2101873;28;20477;-84
2021/12/28 03:39:51;;;;;;;7.22;4.60;;;;;;;2.99;100.00;91464.50;2103572;28;20461;-85
2021/12/28 03:40:53;;;;;;;6.00;4.85;;;;;;;3.08;100.00;91468.47;2093342;28;20059;-85
2021/12/28 03:41:54;;;;;;;4.93;4.30;;;;;;;3.00;100.00;91471.25;2101305;27;20051;-87
2021/12/28 03:42:55;;;;;;;6.75;5.10;;;;;;;2.96;100.00;91467.19;2101106;28;20033;-84
2021/12/28 03:43:57;;;;;;;7.50;4.82;;;;;;;3.15;100.00;91460.41;2095846;28;20044;-87
2021/12/28 03:44:57;;;;;;;6.15;4.70;;;;;;;3.06;100.00;91457.56;2092620;28;20027;-86
2021/12/28 03:45:58;;;;;;;6.63;4.80;;;;;;;3.09;100.00;91465.44;2096297;28;20031;-86
2021/12/28 03:47:02;;;;;;;6.93;4.80;;;;;;;3.15;100.00;91452.47;2100556;28;20051;-86
2021/12/28 03:48:06;;;;;;;5.45;4.93;;;;;;;3.09;100.00;91457.50;2097675;28;20062;-85
2021/12/28 03:49:07;;;;;;;5.13;4.47;;;;;;;3.17;100.00;91466.03;2099440;28;20455;-88
2021/12/28 03:50:10;;;;;;;5.72;4.68;;;;;;;3.15;100.00;91469.06;2107768;28;20028;-85
2021/12/28 03:51:12;;;;;;;6.75;4.63;;;;;;;3.09;100.00;91462.78;2106729;28;20433;-87
2021/12/28 03:52:13;;;;;;;4.68;4.18;;;;;;;3.04;100.00;91458.00;2090508;28;20029;-85
2021/12/28 03:53:14;;;;;;;4.45;4.05;;;;;;;3.08;100.00;91448.09;2098361;28;20470;-85
2021/12/28 03:54:15;;;;;;;6.03;4.75;;;;;;;2.95;100.00;91448.00;2090333;28;20049;-86
2021/12/28 03:55:30;;;;;;;6.13;4.93;;;;;;;2.99;100.00;91448.66;2098127;28;20044;-87
2021/12/28 03:56:31;;;;;;;4.22;3.92;;;;;;;2.90;100.00;91443.19;2096090;28;20035;-85
2021/12/28 03:57:33;;;;;;;4.38;3.97;;;;;;;2.84;100.00;91446.72;2106868;28;20024;-85
2021/12/28 03:58:36;;;;;;;6.18;4.10;;;;;;;2.73;100.00;91450.31;2104041;28;20031;-87
2021/12/28 03:59:38;;;;;;;4.80;4.22;;;;;;;3.01;100.00;91450.88;2101951;27;20024;-84
2021/12/28 04:00:44;;;;;;;5.65;4.65;;;;;;;2.87;100.00;91441.38;2104410;28;20022;-85
2021/12/28 04:01:45;;;;;;;5.32;4.63;;;;;;;2.82;100.00;91441.09;2108242;27;20024;-86
2021/12/28 04:02:47;;;;;;;4.88;4.38;;;;;;;2.90;100.00;91434.53;2106922;28;20024;-87
2021/12/28 04:03:48;;;;;;;4.55;4.15;;;;;;;2.91;100.00;91431.47;2102153;28;20027;-86
2021/12/28 04:04:49;;;;;;;4.65;4.25;;;;;;;3.08;100.00;91434.91;2094900;28;20029;-86
2021/12/28 04:05:51;;;;;;;4.57;4.18;;;;;;;3.11;100.00;91435.97;2093444;28;20077;-84
2021/12/28 04:06:52;;;;;;;5.97;4.20;;;;;;;3.05;100.00;91427.06;2092037;28;20115;-84
2021/12/28 04:08:00;;;;;;;4.65;4.20;;;;;;;2.97;100.00;91426.47;2093095;28;20028;-85
2021/12/28 04:09:08;;;;;;;6.00;4.78;;;;;;;2.91;100.00;91422.81;2105177;28;20408;-84
2021/12/28 04:10:10;;;;;;;5.22;4.72;;;;;;;2.93;100.00;91431.06;2108568;28;20059;-84
2021/12/28 04:12:19;;;;;;;4.63;4.22;;;;;;;3.05;100.00;91424.41;2090720;28;20025;-83
2021/12/28 04:13:23;;;;;;;6.38;4.97;;;;;;;2.87;100.00;91430.81;2099470;28;20056;-86
2021/12/28 04:14:24;;;;;;;4.97;4.47;;;;;;;2.84;100.00;91423.69;2097817;28;20547;-84
2021/12/28 04:15:25;;;;;;;4.90;4.40;;;;;;;2.93;100.00;91421.25;2093928;28;20113;-86
2021/12/28 04:16:35;;;;;;;5.13;4.63;;;;;;;3.05;100.00;91417.25;2098329;28;20021;-84
2021/12/28 04:17:38;;;;;;;5.15;4.65;;;;;;;3.03;100.00;91414.28;2103992;28;20031;-85
2021/12/28 04:18:39;;;;;;;5.30;4.80;;;;;;;3.00;100.00;91420.38;2102455;28;20032;-84
2021/12/28 04:19:40;;;;;;;6.10;4.90;;;;;;;2.90;100.00;91418.69;2103085;28;20024;-86
2021/12/28 04:20:41;;;;;;;5.82;5.13;;;;;;;2.90;100.00;91416.06;2101752;28;20212;-85
2021/12/28 04:21:42;;;;;;;5.30;4.80;;;;;;;2.90;100.00;91416.81;2106549;27;20031;-85
2021/12/28 04:22:43;;;;;;;5.47;4.78;;;;;;;2.93;100.00;91413.34;2102234;28;20346;-87
2021/12/28 04:23:44;;;;;;;5.45;4.95;;;;;;;2.94;100.00;91419.34;2102301;28;20023;-86
2021/12/28 04:24:45;;;;;;;5.22;4.72;;;;;;;2.89;100.00;91415.28;2110750;28;20085;-85
2021/12/28 04:25:47;;;;;;;5.43;4.90;;;;;;;2.89;100.00;91415.28;2111132;27;20023;-86
2021/12/28 04:26:52;;;;;;;5.30;4.65;;;;;;;2.96;100.00;91417.81;2106520;28;20016;-84
2021/12/28 04:27:58;;;;;;;5.25;4.75;;;;;;;3.00;100.00;91413.19;2098705;28;20027;-85
2021/12/28 04:28:59;;;;;;;5.43;4.93;;;;;;;2.96;100.00;91412.53;2104514;28;20573;-86
2021/12/28 04:30:00;;;;;;;6.30;5.70;;;;;;;3.02;100.00;91410.88;2102269;28;20029;-85
2021/12/28 04:31:04;;;;;;;6.40;5.40;;;;;;;2.96;100.00;91412.53;2104467;28;20641;-85
2021/12/28 04:32:08;;;;;;;7.32;5.90;;;;;;;2.93;100.00;91402.03;2100022;28;20020;-85
2021/12/28 04:33:09;;;;;;;5.60;5.10;;;;;;;2.98;100.00;91414.75;2105165;28;20111;-86
2021/12/28 04:34:10;;;;;;;5.95;5.45;;;;;;;2.99;100.00;91408.34;2107294;28;20027;-85
2021/12/28 04:35:14;;;;;;;5.97;5.38;;;;;;;3.10;100.00;91410.72;2114105;28;20455;-85
2021/12/28 04:36:16;;;;;;;5.97;5.25;;;;;;;3.15;100.00;91410.25;2090787;28;20025;-85
2021/12/28 04:37:17;;;;;;;15.00;13.38;;;;;;;3.10;100.00;91408.84;2090073;28;20460;-86
2021/12/28 04:38:19;;;;;;;7.00;6.30;;;;;;;3.19;100.00;91401.09;2106139;28;20028;-86
2021/12/28 04:39:23;;;;;;;5.68;5.18;;;;;;;3.15;100.00;91410.25;2090860;28;20025;-86
2021/12/28 04:40:25;;;;;;;5.68;5.13;;;;;;;3.20;100.00;91409.75;2097469;28;20477;-86
2021/12/28 04:41:26;;;;;;;6.60;5.35;;;;;;;3.09;100.00;91410.00;2090443;28;20021;-85
2021/12/28 04:42:29;;;;;;;5.72;5.13;;;;;;;3.19;100.00;91403.00;2099487;28;20102;-86
2021/12/28 04:43:31;;;;;;;5.90;5.30;;;;;;;3.13;100.00;91408.03;2104614;28;20446;-85
2021/12/28 04:44:32;;;;;;;5.78;5.25;;;;;;;3.12;100.00;91406.53;2100529;27;20028;-86
2021/12/28 04:45:36;;;;;;;6.15;5.55;;;;;;;3.10;100.00;91408.84;2103894;28;20020;-86
2021/12/28 04:46:37;;;;;;;6.53;5.53;;;;;;;3.13;100.00;91405.38;2093691;28;20028;-84
2021/12/28 04:47:38;;;;;;;6.82;5.57;;;;;;;3.25;100.00;91409.28;2102970;28;20158;-87
2021/12/28 04:48:39;;;;;;;6.10;5.50;;;;;;;3.30;100.00;91398.22;2109695;28;20030;-84
2021/12/28 04:49:40;;;;;;;5.60;5.10;;;;;;;3.36;100.00;91395.84;2103023;28;20017;-83
2021/12/28 04:50:45;;;;;;;5.70;5.20;;;;;;;3.34;100.00;91401.53;2101519;28;20031;-85
2021/12/28 04:51:47;;;;;;;5.25;4.80;;;;;;;3.28;100.00;91397.88;2094214;28;20024;-86
2021/12/28 04:52:48;;;;;;;5.15;4.60;;;;;;;3.24;100.00;91408.50;2102116;28;20021;-86
2021/12/28 04:53:53;;;;;;;4.85;4.45;;;;;;;3.35;100.00;91404.91;2102443;28;20016;-86
2021/12/28 04:54:54;;;;;;;4.90;4.50;;;;;;;3.29;100.00;91396.72;2094050;28;20021;-86
2021/12/28 04:55:55;;;;;;;5.28;4.70;;;;;;;3.24;100.00;91389.28;2095018;28;20050;-87
2021/12/28 04:56:56;;;;;;;4.95;4.55;;;;;;;3.19;100.00;91398.44;2102031;28;20025;-84
2021/12/28 04:58:04;;;;;;;5.25;4.80;;;;;;;3.21;100.00;91388.22;2109028;28;20380;-85
2021/12/28 04:59:06;;;;;;;4.80;4.40;;;;;;;3.22;100.00;91402.19;2103134;28;20059;-86